sensor_id;sensor_type;location;lat;lon;timestamp;pressure;altitude;pressure_sealevel;temperature;humidity
64886;BME280;51514;52.206;5.114;2022-08-21T00:00:33;101749.09;;;16.75;76.36
64886;BME280;51514;52.206;5.114;2022-08-21T00:03:03;101743.81;;;16.73;76.30
64886;BME280;51514;52.206;5.114;2022-08-21T00:05:31;101749.44;;;16.72;76.21
64886;BME280;51514;52.206;5.114;2022-08-21T00:07:57;101740.75;;;16.68;76.26
64886;BME280;51514;52.206;5.114;2022-08-21T00:10:24;101744.50;;;16.67;76.31
64886;BME280;51514;52.206;5.114;2022-08-21T00:12:49;101736.50;;;16.66;76.16
64886;BME280;51514;52.206;5.114;2022-08-21T00:15:19;101744.88;;;16.64;76.32
64886;BME280;51514;52.206;5.114;2022-08-21T00:17:45;101742.31;;;16.63;76.01
64886;BME280;51514;52.206;5.114;2022-08-21T00:20:14;101733.44;;;16.61;76.38
64886;BME280;51514;52.206;5.114;2022-08-21T00:22:39;101736.34;;;16.59;76.57
64886;BME280;51514;52.206;5.114;2022-08-21T00:25:06;101726.00;;;16.55;76.69
64886;BME280;51514;52.206;5.114;2022-08-21T00:27:32;101728.72;;;16.55;77.10
64886;BME280;51514;52.206;5.114;2022-08-21T00:29:57;101729.06;;;16.52;77.08
64886;BME280;51514;52.206;5.114;2022-08-21T00:32:25;101723.09;;;16.48;77.10
64886;BME280;51514;52.206;5.114;2022-08-21T00:34:51;101723.28;;;16.47;77.15
64886;BME280;51514;52.206;5.114;2022-08-21T00:37:17;101728.03;;;16.44;77.31
64886;BME280;51514;52.206;5.114;2022-08-21T00:39:43;101722.59;;;16.44;77.27
64886;BME280;51514;52.206;5.114;2022-08-21T00:42:09;101722.59;;;16.44;77.18
64886;BME280;51514;52.206;5.114;2022-08-21T00:44:34;101718.69;;;16.47;77.05
64886;BME280;51514;52.206;5.114;2022-08-21T00:47:00;101723.28;;;16.47;77.67
64886;BME280;51514;52.206;5.114;2022-08-21T00:49:25;101712.22;;;16.48;78.17
64886;BME280;51514;52.206;5.114;2022-08-21T00:51:58;101722.25;;;16.48;78.17
64886;BME280;51514;52.206;5.114;2022-08-21T00:54:26;101724.97;;;16.48;78.16
64886;BME280;51514;52.206;5.114;2022-08-21T00:56:57;101720.56;;;16.47;78.25
64886;BME280;51514;52.206;5.114;2022-08-21T00:59:25;101724.13;;;16.47;78.26
64886;BME280;51514;52.206;5.114;2022-08-21T01:01:50;101723.09;;;16.48;78.12
64886;BME280;51514;52.206;5.114;2022-08-21T01:04:17;101720.38;;;16.48;78.17
64886;BME280;51514;52.206;5.114;2022-08-21T01:06:43;101722.09;;;16.49;78.14
64886;BME280;51514;52.206;5.114;2022-08-21T01:09:09;101727.38;;;16.51;78.00
64886;BME280;51514;52.206;5.114;2022-08-21T01:11:35;101718.16;;;16.52;77.84
64886;BME280;51514;52.206;5.114;2022-08-21T01:14:02;101721.91;;;16.51;77.64
64886;BME280;51514;52.206;5.114;2022-08-21T01:16:28;101726.00;;;16.47;77.62
64886;BME280;51514;52.206;5.114;2022-08-21T01:18:53;101726.38;;;16.43;77.50
64886;BME280;51514;52.206;5.114;2022-08-21T01:21:24;101722.47;;;16.38;77.40
64886;BME280;51514;52.206;5.114;2022-08-21T01:23:52;101726.38;;;16.35;77.42
64886;BME280;51514;52.206;5.114;2022-08-21T01:26:26;101724.69;;;16.34;77.73
64886;BME280;51514;52.206;5.114;2022-08-21T01:28:57;101726.56;;;16.34;77.69
64886;BME280;51514;52.206;5.114;2022-08-21T01:31:26;101726.22;;;16.37;77.51
64886;BME280;51514;52.206;5.114;2022-08-21T01:33:53;101719.91;;;16.36;77.80
64886;BME280;51514;52.206;5.114;2022-08-21T01:36:19;101719.91;;;16.36;77.98
64886;BME280;51514;52.206;5.114;2022-08-21T01:38:44;101717.03;;;16.38;78.30
64886;BME280;51514;52.206;5.114;2022-08-21T01:41:09;101718.91;;;16.37;77.92
64886;BME280;51514;52.206;5.114;2022-08-21T01:43:35;101718.91;;;16.37;77.92
64886;BME280;51514;52.206;5.114;2022-08-21T01:46:02;101723.31;;;16.38;77.99
64886;BME280;51514;52.206;5.114;2022-08-21T01:48:28;101711.56;;;16.38;78.04
64886;BME280;51514;52.206;5.114;2022-08-21T01:50:53;101716.84;;;16.39;78.19
64886;BME280;51514;52.206;5.114;2022-08-21T01:53:19;101710.72;;;16.37;77.95
64886;BME280;51514;52.206;5.114;2022-08-21T01:55:45;101715.66;;;16.34;77.94
64886;BME280;51514;52.206;5.114;2022-08-21T01:58:10;101709.06;;;16.28;77.45
64886;BME280;51514;52.206;5.114;2022-08-21T02:00:35;101705.16;;;16.23;78.08
64886;BME280;51514;52.206;5.114;2022-08-21T02:03:01;101706.22;;;16.22;77.94
64886;BME280;51514;52.206;5.114;2022-08-21T02:05:27;101699.91;;;16.21;78.07
64886;BME280;51514;52.206;5.114;2022-08-21T02:07:53;101699.91;;;16.21;78.21
64886;BME280;51514;52.206;5.114;2022-08-21T02:10:27;101707.06;;;16.22;78.28
64886;BME280;51514;52.206;5.114;2022-08-21T02:12:54;101697.84;;;16.23;78.39
64886;BME280;51514;52.206;5.114;2022-08-21T02:15:20;101701.94;;;16.19;78.38
64886;BME280;51514;52.206;5.114;2022-08-21T02:17:57;101699.22;;;16.19;78.42
64886;BME280;51514;52.206;5.114;2022-08-21T02:20:31;101700.41;;;16.17;78.32
64886;BME280;51514;52.206;5.114;2022-08-21T02:22:57;101704.34;;;16.14;78.06
64886;BME280;51514;52.206;5.114;2022-08-21T02:25:24;101703.47;;;16.14;77.93
64886;BME280;51514;52.206;5.114;2022-08-21T02:27:50;101692.97;;;16.11;77.99
64886;BME280;51514;52.206;5.114;2022-08-21T02:30:22;101686.69;;;16.10;77.79
64886;BME280;51514;52.206;5.114;2022-08-21T02:32:48;101689.22;;;16.03;77.79
64886;BME280;51514;52.206;5.114;2022-08-21T02:35:13;101688.75;;;16.00;78.00
64886;BME280;51514;52.206;5.114;2022-08-21T02:37:53;101688.75;;;16.00;78.14
64886;BME280;51514;52.206;5.114;2022-08-21T02:40:19;101689.09;;;15.97;78.24
64886;BME280;51514;52.206;5.114;2022-08-21T02:42:45;101688.22;;;15.96;78.05
64886;BME280;51514;52.206;5.114;2022-08-21T02:45:12;101687.38;;;15.96;78.35
64886;BME280;51514;52.206;5.114;2022-08-21T02:47:39;101687.38;;;15.96;78.48
64886;BME280;51514;52.206;5.114;2022-08-21T02:50:06;101691.81;;;15.97;78.41
64886;BME280;51514;52.206;5.114;2022-08-21T02:52:32;101688.06;;;15.98;78.58
64886;BME280;51514;52.206;5.114;2022-08-21T02:54:58;101688.06;;;15.98;78.73
64886;BME280;51514;52.206;5.114;2022-08-21T02:57:24;101679.91;;;15.98;78.38
64886;BME280;51514;52.206;5.114;2022-08-21T02:59:49;101683.47;;;15.98;78.46
64886;BME280;51514;52.206;5.114;2022-08-21T03:02:14;101683.81;;;15.95;78.62
64886;BME280;51514;52.206;5.114;2022-08-21T03:04:40;101678.53;;;15.94;79.10
64886;BME280;51514;52.206;5.114;2022-08-21T03:07:05;101684.16;;;15.92;78.79
64886;BME280;51514;52.206;5.114;2022-08-21T03:09:30;101677.22;;;15.90;78.61
64886;BME280;51514;52.206;5.114;2022-08-21T03:11:56;101677.22;;;15.90;78.69
64886;BME280;51514;52.206;5.114;2022-08-21T03:14:21;101674.50;;;15.90;78.80
64886;BME280;51514;52.206;5.114;2022-08-21T03:16:46;101668.19;;;15.89;78.99
64886;BME280;51514;52.206;5.114;2022-08-21T03:19:12;101669.69;;;15.92;79.00
64886;BME280;51514;52.206;5.114;2022-08-21T03:21:37;101659.50;;;15.94;79.12
64886;BME280;51514;52.206;5.114;2022-08-21T03:24:03;101654.91;;;15.94;78.84
64886;BME280;51514;52.206;5.114;2022-08-21T03:26:29;101658.47;;;15.95;78.80
64886;BME280;51514;52.206;5.114;2022-08-21T03:28:55;101655.09;;;15.93;78.74
64886;BME280;51514;52.206;5.114;2022-08-21T03:31:22;101652.34;;;15.93;78.99
64886;BME280;51514;52.206;5.114;2022-08-21T03:33:48;101658.66;;;15.93;79.11
64886;BME280;51514;52.206;5.114;2022-08-21T03:36:13;101662.22;;;15.94;79.14
64886;BME280;51514;52.206;5.114;2022-08-21T03:38:39;101661.19;;;15.95;78.91
64886;BME280;51514;52.206;5.114;2022-08-21T03:41:05;101663.75;;;15.96;78.91
64886;BME280;51514;52.206;5.114;2022-08-21T03:43:31;101660.19;;;15.96;78.84
64886;BME280;51514;52.206;5.114;2022-08-21T03:45:58;101652.88;;;15.96;78.98
64886;BME280;51514;52.206;5.114;2022-08-21T03:48:23;101653.03;;;15.95;78.87
64886;BME280;51514;52.206;5.114;2022-08-21T03:50:52;101646.91;;;15.93;78.87
64886;BME280;51514;52.206;5.114;2022-08-21T03:53:18;101645.59;;;15.89;78.83
64886;BME280;51514;52.206;5.114;2022-08-21T03:55:48;101647.81;;;15.85;78.61
64886;BME280;51514;52.206;5.114;2022-08-21T03:58:19;101645.97;;;15.78;78.84
64886;BME280;51514;52.206;5.114;2022-08-21T04:00:50;101641.34;;;15.70;78.92
64886;BME280;51514;52.206;5.114;2022-08-21T04:03:16;101641.72;;;15.67;79.20
64886;BME280;51514;52.206;5.114;2022-08-21T04:05:42;101644.09;;;15.62;79.69
64886;BME280;51514;52.206;5.114;2022-08-21T04:08:10;101646.31;;;15.58;79.59
64886;BME280;51514;52.206;5.114;2022-08-21T04:10:38;101649.69;;;15.52;79.87
64886;BME280;51514;52.206;5.114;2022-08-21T04:13:05;101643.91;;;15.47;79.57
64886;BME280;51514;52.206;5.114;2022-08-21T04:15:31;101654.44;;;15.42;79.73
64886;BME280;51514;52.206;5.114;2022-08-21T04:17:56;101650.19;;;15.40;79.72
64886;BME280;51514;52.206;5.114;2022-08-21T04:20:22;101652.75;;;15.41;79.91
64886;BME280;51514;52.206;5.114;2022-08-21T04:22:48;101651.72;;;15.42;79.81
64886;BME280;51514;52.206;5.114;2022-08-21T04:25:15;101658.88;;;15.43;79.98
64886;BME280;51514;52.206;5.114;2022-08-21T04:27:41;101658.72;;;15.45;79.88
64886;BME280;51514;52.206;5.114;2022-08-21T04:30:08;101654.97;;;15.46;80.14
64886;BME280;51514;52.206;5.114;2022-08-21T04:32:35;101650.38;;;15.46;80.26
64886;BME280;51514;52.206;5.114;2022-08-21T04:35:05;101657.50;;;15.47;80.57
64886;BME280;51514;52.206;5.114;2022-08-21T04:37:31;101657.50;;;15.47;80.90
64886;BME280;51514;52.206;5.114;2022-08-21T04:39:56;101664.63;;;15.48;80.41
64886;BME280;51514;52.206;5.114;2022-08-21T04:42:26;101661.75;;;15.50;80.65
64886;BME280;51514;52.206;5.114;2022-08-21T04:44:51;101663.97;;;15.46;80.69
64886;BME280;51514;52.206;5.114;2022-08-21T04:47:17;101672.13;;;15.46;80.80
64886;BME280;51514;52.206;5.114;2022-08-21T04:49:43;101671.09;;;15.47;80.72
64886;BME280;51514;52.206;5.114;2022-08-21T04:52:09;101680.28;;;15.46;80.76
64886;BME280;51514;52.206;5.114;2022-08-21T04:54:36;101672.94;;;15.47;80.60
64886;BME280;51514;52.206;5.114;2022-08-21T04:57:05;101672.94;;;15.47;80.78
64886;BME280;51514;52.206;5.114;2022-08-21T04:59:46;101678.22;;;15.48;80.61
64886;BME280;51514;52.206;5.114;2022-08-21T05:02:12;101676.34;;;15.49;80.47
64886;BME280;51514;52.206;5.114;2022-08-21T05:04:42;101678.91;;;15.50;80.47
64886;BME280;51514;52.206;5.114;2022-08-21T05:07:15;101675.50;;;15.48;80.63
64886;BME280;51514;52.206;5.114;2022-08-21T05:09:42;101671.78;;;15.49;80.55
64886;BME280;51514;52.206;5.114;2022-08-21T05:12:08;101676.34;;;15.49;80.64
64886;BME280;51514;52.206;5.114;2022-08-21T05:14:33;101685.53;;;15.48;80.80
64886;BME280;51514;52.206;5.114;2022-08-21T05:16:59;101682.47;;;15.43;81.03
64886;BME280;51514;52.206;5.114;2022-08-21T05:19:24;101684.50;;;15.41;81.20
64886;BME280;51514;52.206;5.114;2022-08-21T05:21:50;101689.94;;;15.41;81.54
64886;BME280;51514;52.206;5.114;2022-08-21T05:24:16;101687.56;;;15.38;81.94
64886;BME280;51514;52.206;5.114;2022-08-21T05:26:43;101691.28;;;15.37;82.26
64886;BME280;51514;52.206;5.114;2022-08-21T05:29:09;101684.00;;;15.37;82.58
64886;BME280;51514;52.206;5.114;2022-08-21T05:31:36;101687.22;;;15.41;82.88
64886;BME280;51514;52.206;5.114;2022-08-21T05:34:02;101687.06;;;15.42;82.98
64886;BME280;51514;52.206;5.114;2022-08-21T05:36:27;101694.88;;;15.45;83.47
64886;BME280;51514;52.206;5.114;2022-08-21T05:38:53;101693.88;;;15.46;83.86
64886;BME280;51514;52.206;5.114;2022-08-21T05:41:18;101695.22;;;15.50;84.49
64886;BME280;51514;52.206;5.114;2022-08-21T05:43:44;101692.88;;;15.55;84.82
64886;BME280;51514;52.206;5.114;2022-08-21T05:46:09;101699.31;;;15.62;84.97
64886;BME280;51514;52.206;5.114;2022-08-21T05:48:35;101698.28;;;15.72;85.53
64886;BME280;51514;52.206;5.114;2022-08-21T05:51:09;101694.53;;;15.81;85.96
64886;BME280;51514;52.206;5.114;2022-08-21T05:53:36;101702.50;;;15.90;86.22
64886;BME280;51514;52.206;5.114;2022-08-21T05:56:03;101700.66;;;15.99;86.36
64886;BME280;51514;52.206;5.114;2022-08-21T05:58:30;101701.31;;;16.09;87.42
64886;BME280;51514;52.206;5.114;2022-08-21T06:00:55;101694.81;;;16.18;88.09
64886;BME280;51514;52.206;5.114;2022-08-21T06:03:23;101688.31;;;16.27;89.13
64886;BME280;51514;52.206;5.114;2022-08-21T06:05:49;101688.28;;;16.35;89.73
64886;BME280;51514;52.206;5.114;2022-08-21T06:08:15;101685.16;;;16.47;89.93
64886;BME280;51514;52.206;5.114;2022-08-21T06:10:42;101684.78;;;16.58;90.02
64886;BME280;51514;52.206;5.114;2022-08-21T06:13:07;101693.25;;;16.71;90.07
64886;BME280;51514;52.206;5.114;2022-08-21T06:15:33;101692.88;;;16.82;89.65
64886;BME280;51514;52.206;5.114;2022-08-21T06:17:59;101688.03;;;16.92;89.40
64886;BME280;51514;52.206;5.114;2022-08-21T06:20:25;101684.41;;;17.00;89.37
64886;BME280;51514;52.206;5.114;2022-08-21T06:22:51;101687.94;;;17.08;89.50
64886;BME280;51514;52.206;5.114;2022-08-21T06:25:16;101692.97;;;17.20;89.10
64886;BME280;51514;52.206;5.114;2022-08-21T06:27:41;101688.31;;;17.28;89.38
64886;BME280;51514;52.206;5.114;2022-08-21T06:30:07;101690.59;;;17.39;88.80
64886;BME280;51514;52.206;5.114;2022-08-21T06:32:34;101691.03;;;17.51;88.53
64886;BME280;51514;52.206;5.114;2022-08-21T06:34:59;101685.50;;;17.59;88.36
64886;BME280;51514;52.206;5.114;2022-08-21T06:37:25;101684.59;;;17.67;87.75
64886;BME280;51514;52.206;5.114;2022-08-21T06:39:50;101687.06;;;17.76;87.85
64886;BME280;51514;52.206;5.114;2022-08-21T06:42:16;101689.31;;;17.87;87.45
64886;BME280;51514;52.206;5.114;2022-08-21T06:44:43;101690.75;;;17.98;87.14
64886;BME280;51514;52.206;5.114;2022-08-21T06:47:08;101684.56;;;18.04;86.37
64886;BME280;51514;52.206;5.114;2022-08-21T06:49:34;101690.59;;;18.14;86.38
64886;BME280;51514;52.206;5.114;2022-08-21T06:52:00;101691.16;;;18.24;86.42
64886;BME280;51514;52.206;5.114;2022-08-21T06:54:25;101680.13;;;18.33;85.73
64886;BME280;51514;52.206;5.114;2022-08-21T06:56:51;101689.00;;;18.35;85.17
64886;BME280;51514;52.206;5.114;2022-08-21T06:59:16;101690.28;;;18.39;85.38
64886;BME280;51514;52.206;5.114;2022-08-21T07:01:42;101690.03;;;18.48;85.36
64886;BME280;51514;52.206;5.114;2022-08-21T07:04:07;101680.72;;;18.57;85.21
64886;BME280;51514;52.206;5.114;2022-08-21T07:06:33;101678.66;;;18.59;84.33
64886;BME280;51514;52.206;5.114;2022-08-21T07:08:58;101678.91;;;18.65;84.71
64886;BME280;51514;52.206;5.114;2022-08-21T07:11:24;101681.50;;;18.73;84.92
64886;BME280;51514;52.206;5.114;2022-08-21T07:13:50;101682.06;;;18.83;84.46
64886;BME280;51514;52.206;5.114;2022-08-21T07:16:18;101688.28;;;18.91;84.05
64886;BME280;51514;52.206;5.114;2022-08-21T07:18:44;101679.75;;;19.01;83.93
64886;BME280;51514;52.206;5.114;2022-08-21T07:21:10;101682.56;;;19.08;83.35
64886;BME280;51514;52.206;5.114;2022-08-21T07:23:45;101677.97;;;19.15;82.95
64886;BME280;51514;52.206;5.114;2022-08-21T07:26:13;101683.16;;;19.24;82.64
64886;BME280;51514;52.206;5.114;2022-08-21T07:28:39;101679.25;;;19.33;82.57
64886;BME280;51514;52.206;5.114;2022-08-21T07:31:05;101682.22;;;19.39;82.01
64886;BME280;51514;52.206;5.114;2022-08-21T07:33:32;101685.63;;;19.41;82.35
64886;BME280;51514;52.206;5.114;2022-08-21T07:35:58;101687.84;;;19.52;82.36
64886;BME280;51514;52.206;5.114;2022-08-21T07:38:25;101692.59;;;19.64;81.69
64886;BME280;51514;52.206;5.114;2022-08-21T07:40:53;101691.22;;;19.75;81.50
64886;BME280;51514;52.206;5.114;2022-08-21T07:43:19;101686.41;;;19.77;81.19
64886;BME280;51514;52.206;5.114;2022-08-21T07:45:46;101690.66;;;19.86;81.24
64886;BME280;51514;52.206;5.114;2022-08-21T07:48:12;101697.22;;;19.92;80.48
64886;BME280;51514;52.206;5.114;2022-08-21T07:50:38;101697.28;;;19.98;80.68
64886;BME280;51514;52.206;5.114;2022-08-21T07:53:04;101701.16;;;20.11;80.20
64886;BME280;51514;52.206;5.114;2022-08-21T07:55:30;101699.13;;;20.26;80.29
64886;BME280;51514;52.206;5.114;2022-08-21T07:57:55;101692.88;;;20.32;80.00
64886;BME280;51514;52.206;5.114;2022-08-21T08:00:22;101686.81;;;20.36;79.48
64886;BME280;51514;52.206;5.114;2022-08-21T08:02:50;101666.00;;;20.42;79.77
64886;BME280;51514;52.206;5.114;2022-08-21T08:05:18;101676.50;;;20.38;79.14
64886;BME280;51514;52.206;5.114;2022-08-21T08:07:44;101677.78;;;20.43;78.41
64886;BME280;51514;52.206;5.114;2022-08-21T08:10:09;101680.72;;;20.41;78.81
64886;BME280;51514;52.206;5.114;2022-08-21T08:12:37;101680.72;;;20.41;79.03
64886;BME280;51514;52.206;5.114;2022-08-21T08:15:05;101683.28;;;20.49;78.94
64886;BME280;51514;52.206;5.114;2022-08-21T08:17:31;101692.63;;;20.61;79.09
64886;BME280;51514;52.206;5.114;2022-08-21T08:19:57;101689.09;;;20.74;78.73
64886;BME280;51514;52.206;5.114;2022-08-21T08:22:23;101680.09;;;20.87;78.91
64886;BME280;51514;52.206;5.114;2022-08-21T08:24:50;101685.16;;;20.96;79.01
64886;BME280;51514;52.206;5.114;2022-08-21T08:27:16;101680.34;;;21.05;77.99
64886;BME280;51514;52.206;5.114;2022-08-21T08:29:42;101682.09;;;21.19;77.92
64886;BME280;51514;52.206;5.114;2022-08-21T08:32:08;101689.47;;;21.32;77.57
64886;BME280;51514;52.206;5.114;2022-08-21T08:34:35;101685.28;;;21.49;76.95
64886;BME280;51514;52.206;5.114;2022-08-21T08:37:01;101678.97;;;21.62;76.68
64886;BME280;51514;52.206;5.114;2022-08-21T08:39:27;101675.38;;;21.81;76.69
64886;BME280;51514;52.206;5.114;2022-08-21T08:42:05;101681.25;;;21.91;75.65
64886;BME280;51514;52.206;5.114;2022-08-21T08:44:31;101673.00;;;21.98;75.50
64886;BME280;51514;52.206;5.114;2022-08-21T08:46:57;101674.50;;;22.07;75.72
64886;BME280;51514;52.206;5.114;2022-08-21T08:49:31;101673.66;;;22.13;73.65
64886;BME280;51514;52.206;5.114;2022-08-21T08:52:10;101673.22;;;22.09;73.28
64886;BME280;51514;52.206;5.114;2022-08-21T08:54:43;101670.50;;;22.03;74.52
64886;BME280;51514;52.206;5.114;2022-08-21T08:57:16;101675.16;;;22.02;73.16
64886;BME280;51514;52.206;5.114;2022-08-21T08:59:48;101671.53;;;22.15;74.18
64886;BME280;51514;52.206;5.114;2022-08-21T09:02:16;101666.66;;;22.24;74.20
64886;BME280;51514;52.206;5.114;2022-08-21T09:04:42;101669.41;;;22.24;73.09
64886;BME280;51514;52.206;5.114;2022-08-21T09:10:18;101661.34;;;22.29;72.10
64886;BME280;51514;52.206;5.114;2022-08-21T09:20:37;101668.75;;;22.28;72.51
64886;BME280;51514;52.206;5.114;2022-08-21T09:25:45;101672.53;;;22.34;71.36
64886;BME280;51514;52.206;5.114;2022-08-21T09:28:15;101666.41;;;22.32;70.10
64886;BME280;51514;52.206;5.114;2022-08-21T09:30:41;101675.25;;;22.47;71.74
64886;BME280;51514;52.206;5.114;2022-08-21T09:33:07;101673.28;;;22.61;70.85
64886;BME280;51514;52.206;5.114;2022-08-21T09:35:34;101662.66;;;22.77;70.38
64886;BME280;51514;52.206;5.114;2022-08-21T09:38:05;101667.88;;;22.92;70.21
64886;BME280;51514;52.206;5.114;2022-08-21T09:40:46;101667.22;;;22.97;69.14
64886;BME280;51514;52.206;5.114;2022-08-21T09:43:20;101654.44;;;23.09;69.35
64886;BME280;51514;52.206;5.114;2022-08-21T09:45:48;101658.22;;;23.14;68.77
64886;BME280;51514;52.206;5.114;2022-08-21T09:48:25;101658.81;;;23.16;68.58
64886;BME280;51514;52.206;5.114;2022-08-21T09:50:52;101657.56;;;23.19;67.95
64886;BME280;51514;52.206;5.114;2022-08-21T09:53:28;101654.38;;;23.15;68.51
64886;BME280;51514;52.206;5.114;2022-08-21T09:56:00;101649.72;;;23.16;67.87
64886;BME280;51514;52.206;5.114;2022-08-21T09:58:48;101649.34;;;23.37;68.03
64886;BME280;51514;52.206;5.114;2022-08-21T10:01:21;101660.31;;;23.50;66.61
64886;BME280;51514;52.206;5.114;2022-08-21T10:03:47;101654.69;;;23.63;67.18
64886;BME280;51514;52.206;5.114;2022-08-21T10:06:27;101658.28;;;23.64;65.63
64886;BME280;51514;52.206;5.114;2022-08-21T10:09:11;101655.31;;;23.65;65.12
64886;BME280;51514;52.206;5.114;2022-08-21T10:11:37;101653.22;;;23.61;65.78
64886;BME280;51514;52.206;5.114;2022-08-21T10:17:09;101651.59;;;23.22;64.47
64886;BME280;51514;52.206;5.114;2022-08-21T10:22:32;101642.88;;;23.00;66.10
64886;BME280;51514;52.206;5.114;2022-08-21T10:25:11;101642.88;;;22.93;66.73
64886;BME280;51514;52.206;5.114;2022-08-21T10:27:57;101652.44;;;22.91;67.13
64886;BME280;51514;52.206;5.114;2022-08-21T10:33:18;101649.03;;;22.96;66.67
64886;BME280;51514;52.206;5.114;2022-08-21T10:36:11;101649.47;;;22.92;65.95
64886;BME280;51514;52.206;5.114;2022-08-21T10:38:51;101648.16;;;22.95;66.40
64886;BME280;51514;52.206;5.114;2022-08-21T10:41:43;101650.75;;;22.90;65.91
64886;BME280;51514;52.206;5.114;2022-08-21T10:53:05;101638.72;;;22.84;68.33
64886;BME280;51514;52.206;5.114;2022-08-21T10:55:40;101639.53;;;22.91;66.82
64886;BME280;51514;52.206;5.114;2022-08-21T10:59:02;101637.59;;;22.99;66.42
64886;BME280;51514;52.206;5.114;2022-08-21T11:02:02;101635.09;;;23.22;67.20
64886;BME280;51514;52.206;5.114;2022-08-21T11:04:30;101641.44;;;23.47;63.58
64886;BME280;51514;52.206;5.114;2022-08-21T11:07:02;101635.09;;;23.53;64.08
64886;BME280;51514;52.206;5.114;2022-08-21T11:09:29;101638.84;;;23.59;64.06
64886;BME280;51514;52.206;5.114;2022-08-21T11:12:34;101635.22;;;23.58;62.95
64886;BME280;51514;52.206;5.114;2022-08-21T11:17:49;101629.19;;;23.93;61.92
64886;BME280;51514;52.206;5.114;2022-08-21T11:20:41;101634.97;;;24.10;60.83
64886;BME280;51514;52.206;5.114;2022-08-21T11:23:28;101632.28;;;24.21;60.20
64886;BME280;51514;52.206;5.114;2022-08-21T11:26:01;101635.66;;;24.23;61.52
64886;BME280;51514;52.206;5.114;2022-08-21T11:28:42;101639.34;;;24.35;61.31
64886;BME280;51514;52.206;5.114;2022-08-21T11:36:35;101638.63;;;24.58;60.52
64886;BME280;51514;52.206;5.114;2022-08-21T11:39:30;101634.13;;;24.64;60.44
64886;BME280;51514;52.206;5.114;2022-08-21T11:42:15;101637.09;;;24.62;57.57
64886;BME280;51514;52.206;5.114;2022-08-21T11:44:50;101642.22;;;24.59;57.95
64886;BME280;51514;52.206;5.114;2022-08-21T11:47:30;101643.22;;;24.46;57.98
64886;BME280;51514;52.206;5.114;2022-08-21T11:54:55;101650.50;;;24.59;58.37
64886;BME280;51514;52.206;5.114;2022-08-21T11:57:46;101661.25;;;24.49;57.69
64886;BME280;51514;52.206;5.114;2022-08-21T12:00:27;101654.34;;;24.40;57.75
64886;BME280;51514;52.206;5.114;2022-08-21T12:02:58;101653.91;;;24.43;59.02
64886;BME280;51514;52.206;5.114;2022-08-21T12:05:31;101651.34;;;24.59;59.38
64886;BME280;51514;52.206;5.114;2022-08-21T12:08:34;101649.88;;;24.75;58.39
64886;BME280;51514;52.206;5.114;2022-08-21T12:11:23;101645.00;;;24.89;57.17
64886;BME280;51514;52.206;5.114;2022-08-21T12:16:37;101646.63;;;24.96;57.28
64886;BME280;51514;52.206;5.114;2022-08-21T12:21:34;101645.38;;;25.22;57.36
64886;BME280;51514;52.206;5.114;2022-08-21T12:26:53;101652.38;;;25.36;54.77
64886;BME280;51514;52.206;5.114;2022-08-21T12:29:29;101652.38;;;25.36;55.25
64886;BME280;51514;52.206;5.114;2022-08-21T12:34:38;101650.56;;;25.42;54.29
64886;BME280;51514;52.206;5.114;2022-08-21T12:37:21;101654.91;;;25.38;55.08
64886;BME280;51514;52.206;5.114;2022-08-21T12:39:51;101652.50;;;25.30;55.13
64886;BME280;51514;52.206;5.114;2022-08-21T12:42:23;101654.69;;;25.39;56.12
64886;BME280;51514;52.206;5.114;2022-08-21T12:44:56;101651.94;;;25.51;56.00
64886;BME280;51514;52.206;5.114;2022-08-21T12:47:26;101660.50;;;25.61;55.46
64886;BME280;51514;52.206;5.114;2022-08-21T12:52:30;101665.78;;;25.74;54.66
64886;BME280;51514;52.206;5.114;2022-08-21T12:54:57;101663.88;;;25.63;54.67
64886;BME280;51514;52.206;5.114;2022-08-21T12:57:28;101660.00;;;25.64;53.96
64886;BME280;51514;52.206;5.114;2022-08-21T12:59:59;101662.44;;;25.72;55.36
64886;BME280;51514;52.206;5.114;2022-08-21T13:02:34;101662.69;;;25.71;52.66
64886;BME280;51514;52.206;5.114;2022-08-21T13:05:04;101666.50;;;25.70;53.84
64886;BME280;51514;52.206;5.114;2022-08-21T13:07:32;101667.72;;;25.62;54.63
64886;BME280;51514;52.206;5.114;2022-08-21T13:10:04;101666.94;;;25.55;54.57
64886;BME280;51514;52.206;5.114;2022-08-21T13:12:32;101668.16;;;25.59;54.59
64886;BME280;51514;52.206;5.114;2022-08-21T13:15:02;101658.81;;;25.60;53.03
64886;BME280;51514;52.206;5.114;2022-08-21T13:17:31;101667.81;;;25.67;54.54
64886;BME280;51514;52.206;5.114;2022-08-21T13:19:58;101668.28;;;25.64;53.78
64886;BME280;51514;52.206;5.114;2022-08-21T13:22:26;101666.03;;;25.61;53.80
64886;BME280;51514;52.206;5.114;2022-08-21T13:24:52;101666.94;;;25.55;53.05
64886;BME280;51514;52.206;5.114;2022-08-21T13:27:27;101667.91;;;25.49;52.87
64886;BME280;51514;52.206;5.114;2022-08-21T13:30:20;101666.91;;;25.43;53.76
64886;BME280;51514;52.206;5.114;2022-08-21T13:32:52;101672.19;;;25.45;55.44
64886;BME280;51514;52.206;5.114;2022-08-21T13:35:25;101660.09;;;25.46;55.18
64886;BME280;51514;52.206;5.114;2022-08-21T13:37:51;101666.56;;;25.40;54.77
64886;BME280;51514;52.206;5.114;2022-08-21T13:40:24;101662.59;;;25.36;54.18
64886;BME280;51514;52.206;5.114;2022-08-21T13:42:50;101658.75;;;25.37;55.06
64886;BME280;51514;52.206;5.114;2022-08-21T13:45:25;101653.22;;;25.37;54.65
64886;BME280;51514;52.206;5.114;2022-08-21T13:47:51;101665.50;;;25.41;55.40
64886;BME280;51514;52.206;5.114;2022-08-21T13:50:20;101661.63;;;25.42;54.01
64886;BME280;51514;52.206;5.114;2022-08-21T13:53:19;101661.63;;;25.42;53.53
64886;BME280;51514;52.206;5.114;2022-08-21T13:55:39;101660.44;;;25.38;54.78
64886;BME280;51514;52.206;5.114;2022-08-21T13:58:06;101660.44;;;25.38;55.37